Startpagina
METAR-TAF:

METAR-TAF

Vliegvelden :

Nouméa / La Tontouta, Nieuw-Caledonië

breedte: 22-01S, lengte: 166-13E, hoogte: 16 m

Actueel weer

Dit bericht is 16 minuten geleden gemaakt, om 02:30 UTC
Wind 9 kt uit het zuiden, variërend tussen het zuidzuidoosten en het zuidwesten
Temperatuur 24°C
Vochtigheid 38%
Druk 1013 hPa
Zicht 10 km of meer
Verspreide wolken op 5200 ft

METAR: NWWW 210230Z AUTO 18009KT 150V220 9999 SCT052 24/09 Q1013 NOSIG

Tijdstip: 13:46 (02:46 UTC)

Verwachting

Dit bericht is 3 uur en het 46 minuten geleden gemaakt, om 23:00 UTC
Verwachting geldig van 21 om 00 UTC tot 21 om 24 UTC
Wind 10 kt uit het zuidzuidwesten
Zicht 10 km of meer
Weinig wolken op 4500 ft
Wijzigt naar
van 21 om 07 UTC tot 21 om 10 UTC
Wind 2 kt uit variabele richting

TAF: NWWW 202300Z 2100/2124 20010KT 9999 FEW045 BECMG 2107/2110 VRB02KT

Waarnemingen en weersverwachtingen van meer dan 4000 vliegvelden (METAR en TAF).

De beschikbare stations zijn de gele en rode punten op de kaart.

Ga met uw muis naar het station om de naam te zien.

Klik dan om waarnemingen en weersverwachtingen te zien.

kaart wijzigen: klik op de groene knoppen met een zwart kruis om in te zoomen, op de groene knop met een streepje om uit te zoomen of op de groene pijlen voor aangrenzende kaarten.


METAR-TAF: